Time;durP1;ratioP1;P1;durP2;ratioP2;P2;SDS_P1;SDS_P2;PMS_P1;PMS_P2;Temp;Humidity;BMP_temperature;BMP_pressure;BME280_temperature;BME280_humidity;BME280_pressure;Samples;Min_cycle;Max_cycle;Signal;HPM_P1;HPM_P2
2023/05/17 00:00:44;;;;;;;13.70;5.88;;;;;;;7.38;100.00;102322.66;5009028;28;20026;-63
2023/05/17 00:03:10;;;;;;;12.27;5.60;;;;;;;7.33;100.00;102320.66;5008698;28;20056;-63
2023/05/17 00:05:35;;;;;;;15.07;4.50;;;;;;;7.27;100.00;102314.16;5007850;28;20026;-64
2023/05/17 00:08:00;;;;;;;9.73;5.47;;;;;;;7.24;100.00;102324.28;5008588;28;20034;-63
2023/05/17 00:10:26;;;;;;;17.50;5.43;;;;;;;7.20;100.00;102313.75;5008107;28;20034;-63
2023/05/17 00:12:51;;;;;;;11.65;4.68;;;;;;;7.19;100.00;102324.88;5008030;28;20778;-63
2023/05/17 00:15:16;;;;;;;14.00;5.80;;;;;;;7.16;100.00;102327.22;5008730;28;20496;-63
2023/05/17 00:17:41;;;;;;;11.40;5.60;;;;;;;7.10;100.00;102331.97;5007502;28;20030;-63
2023/05/17 00:20:07;;;;;;;13.88;4.97;;;;;;;7.08;100.00;102328.38;5009104;28;20072;-63
2023/05/17 00:22:33;;;;;;;13.35;5.38;;;;;;;7.05;100.00;102328.16;5008158;28;20029;-63
2023/05/17 00:24:58;;;;;;;13.68;5.15;;;;;;;7.02;100.00;102326.25;5008758;28;20045;-63
2023/05/17 00:27:23;;;;;;;9.48;4.75;;;;;;;6.99;100.00;102325.13;5008055;28;20097;-63
2023/05/17 00:29:49;;;;;;;12.13;4.35;;;;;;;6.96;100.00;102329.28;5009304;28;20062;-63
2023/05/17 00:32:14;;;;;;;10.15;4.68;;;;;;;6.97;100.00;102320.78;5008096;28;20029;-61
2023/05/17 00:34:40;;;;;;;10.95;4.05;;;;;;;6.97;100.00;102320.78;5008154;28;20041;-63
2023/05/17 00:37:05;;;;;;;13.05;4.85;;;;;;;7.01;100.00;102326.16;5008161;28;20112;-63
2023/05/17 00:39:30;;;;;;;16.23;5.30;;;;;;;7.01;100.00;102326.16;5008599;28;20903;-63
2023/05/17 00:41:55;;;;;;;9.95;4.60;;;;;;;6.99;100.00;102326.03;5007595;28;20056;-63
2023/05/17 00:44:21;;;;;;;13.38;4.57;;;;;;;6.99;100.00;102319.97;5007406;28;20462;-63
2023/05/17 00:46:46;;;;;;;12.23;3.88;;;;;;;7.00;100.00;102320.09;5007942;28;20057;-64
2023/05/17 00:49:11;;;;;;;12.70;4.65;;;;;;;6.99;100.00;102314.81;5008139;28;20505;-63
2023/05/17 00:51:38;;;;;;;10.93;4.15;;;;;;;6.95;100.00;102314.63;5006924;28;20022;-63
2023/05/17 00:54:04;;;;;;;10.00;3.97;;;;;;;6.93;100.00;102318.75;5007937;28;20021;-63
2023/05/17 00:56:30;;;;;;;12.95;5.22;;;;;;;6.90;100.00;102325.38;5007953;28;20103;-63
2023/05/17 00:58:56;;;;;;;11.43;4.88;;;;;;;6.88;100.00;102325.28;5008042;28;20034;-63
2023/05/17 01:01:21;;;;;;;13.57;4.88;;;;;;;6.88;100.00;102317.53;5007757;28;20558;-63
2023/05/17 01:03:47;;;;;;;11.85;4.65;;;;;;;6.87;100.00;102308.03;5007097;28;20069;-63
2023/05/17 01:06:13;;;;;;;11.45;4.05;;;;;;;6.83;100.00;102312.09;5007727;28;20025;-63
2023/05/17 01:08:38;;;;;;;8.88;4.03;;;;;;;6.79;100.00;102319.47;5007541;28;20541;-63
2023/05/17 01:11:33;;;;;;;9.85;4.25;;;;;;;6.78;100.00;102317.69;5007850;28;20108;-63
2023/05/17 01:14:22;;;;;;;12.27;4.22;;;;;;;6.77;100.00;102315.88;4989598;28;20085;-63
2023/05/17 01:16:54;;;;;;;11.07;3.90;;;;;;;6.73;100.00;102320.81;5007433;28;20037;-63
2023/05/17 01:19:33;;;;;;;10.73;4.47;;;;;;;6.73;100.00;102309.59;5007415;28;20037;-63
2023/05/17 01:22:30;;;;;;;9.75;4.20;;;;;;;6.70;100.00;102310.31;5007303;28;20580;-63
2023/05/17 01:25:25;;;;;;;8.05;4.28;;;;;;;6.68;100.00;102310.97;4990008;28;20500;-63
2023/05/17 01:27:54;;;;;;;8.27;3.58;;;;;;;6.65;100.00;102323.63;4996558;28;20068;-63
2023/05/17 01:30:22;;;;;;;13.10;4.50;;;;;;;6.62;100.00;102337.19;5006744;28;20029;-63
2023/05/17 01:32:47;;;;;;;7.55;4.22;;;;;;;6.59;100.00;102326.66;5006989;28;20034;-63
2023/05/17 01:35:14;;;;;;;15.35;5.30;;;;;;;6.62;100.00;102324.28;5006507;28;20022;-63
2023/05/17 01:37:40;;;;;;;12.48;4.82;;;;;;;6.66;100.00;102331.47;5007179;28;20037;-63
2023/05/17 01:40:07;;;;;;;10.20;4.03;;;;;;;6.63;100.00;102318.38;5006404;28;20030;-63
2023/05/17 01:42:37;;;;;;;13.05;4.68;;;;;;;6.60;100.00;102313.88;5006845;28;20045;-63
2023/05/17 01:45:15;;;;;;;11.48;4.30;;;;;;;6.55;100.00;102320.38;5006930;28;20523;-63
2023/05/17 01:47:58;;;;;;;8.10;4.72;;;;;;;6.49;100.00;102310.53;5006524;28;20026;-63
2023/05/17 01:50:28;;;;;;;14.30;4.90;;;;;;;6.46;100.00;102318.03;4994710;28;20033;-63
2023/05/17 01:53:21;;;;;;;8.13;3.83;;;;;;;6.43;100.00;102319.50;5006741;28;20138;-63
2023/05/17 01:55:51;;;;;;;8.25;4.13;;;;;;;6.38;100.00;102316.59;5007142;28;20508;-63
2023/05/17 01:58:20;;;;;;;10.50;5.07;;;;;;;6.34;100.00;102314.56;4994980;28;20468;-63
2023/05/17 02:00:47;;;;;;;6.47;4.00;;;;;;;6.31;100.00;102319.50;5006879;28;20041;-63
2023/05/17 02:03:19;;;;;;;12.90;4.97;;;;;;;6.27;100.00;102325.19;5006299;28;20517;-63
2023/05/17 02:05:44;;;;;;;10.48;4.65;;;;;;;6.26;100.00;102326.00;5007058;28;20025;-63
2023/05/17 02:08:10;;;;;;;13.35;4.57;;;;;;;6.22;100.00;102330.91;5007578;28;20030;-63
2023/05/17 02:10:35;;;;;;;10.30;4.43;;;;;;;6.18;100.00;102328.91;5007061;28;20034;-63
2023/05/17 02:13:01;;;;;;;8.23;5.00;;;;;;;6.17;100.00;102326.22;5006876;28;20022;-63
2023/05/17 02:15:26;;;;;;;7.05;3.75;;;;;;;6.16;100.00;102325.31;5006741;28;20402;-63
2023/05/17 02:17:51;;;;;;;9.13;4.32;;;;;;;6.12;100.00;102313.00;5007473;28;20021;-63
2023/05/17 02:20:17;;;;;;;9.70;4.13;;;;;;;6.10;100.00;102319.69;5007585;28;20037;-63
2023/05/17 02:22:42;;;;;;;11.43;4.32;;;;;;;6.11;100.00;102321.50;5006947;28;20108;-62
2023/05/17 02:25:08;;;;;;;9.60;3.88;;;;;;;6.11;100.00;102316.34;5006721;28;20045;-63
2023/05/17 02:27:33;;;;;;;11.70;4.50;;;;;;;6.11;100.00;102327.56;5006441;28;20078;-63
2023/05/17 02:29:58;;;;;;;11.07;4.15;;;;;;;6.11;100.00;102324.09;5007363;28;20037;-63
2023/05/17 02:32:25;;;;;;;10.63;4.75;;;;;;;6.06;100.00;102322.84;5006826;28;20492;-62
2023/05/17 02:34:50;;;;;;;13.55;5.10;;;;;;;6.04;100.00;102314.06;5006790;28;20035;-63
2023/05/17 02:37:15;;;;;;;11.35;4.85;;;;;;;6.04;100.00;102329.53;5007062;28;20026;-63
2023/05/17 02:39:40;;;;;;;11.65;5.05;;;;;;;6.04;100.00;102334.66;5006280;28;20014;-63
2023/05/17 02:42:06;;;;;;;12.93;4.97;;;;;;;6.05;100.00;102339.03;5006828;28;20072;-63
2023/05/17 02:44:31;;;;;;;12.43;5.13;;;;;;;6.05;100.00;102336.44;5006483;28;20026;-63
2023/05/17 02:46:56;;;;;;;8.15;4.53;;;;;;;6.08;100.00;102336.72;5008811;28;20029;-63
2023/05/17 02:49:22;;;;;;;14.90;5.13;;;;;;;6.11;100.00;102342.09;5010727;28;20022;-63
2023/05/17 02:51:47;;;;;;;8.77;4.68;;;;;;;6.15;100.00;102335.50;5010505;28;20045;-63
2023/05/17 02:54:12;;;;;;;9.05;4.75;;;;;;;6.19;100.00;102340.97;5010458;28;20034;-63
2023/05/17 02:56:37;;;;;;;8.50;4.97;;;;;;;6.21;100.00;102339.41;5010508;28;20521;-63
2023/05/17 02:59:03;;;;;;;10.73;5.22;;;;;;;6.26;100.00;102346.59;5011368;28;20029;-63
2023/05/17 03:01:28;;;;;;;10.07;5.15;;;;;;;6.28;100.00;102351.06;5009992;28;20021;-63
2023/05/17 03:03:54;;;;;;;13.50;5.40;;;;;;;6.32;100.00;102350.50;5010499;28;20135;-63
2023/05/17 03:06:20;;;;;;;12.68;5.82;;;;;;;6.35;100.00;102352.44;5009729;28;20021;-63
2023/05/17 03:08:45;;;;;;;11.45;5.72;;;;;;;6.39;100.00;102351.84;5010754;28;20049;-63
2023/05/17 03:11:10;;;;;;;13.00;5.82;;;;;;;6.41;100.00;102347.72;5010453;28;20030;-63
2023/05/17 03:13:36;;;;;;;14.85;7.32;;;;;;;6.47;100.00;102352.44;5009911;28;20026;-63
2023/05/17 03:16:01;;;;;;;10.93;5.88;;;;;;;6.49;100.00;102351.75;5009984;28;20026;-63
2023/05/17 03:18:26;;;;;;;13.32;6.07;;;;;;;6.55;100.00;102355.56;5010624;28;20069;-63
2023/05/17 03:20:51;;;;;;;14.77;5.95;;;;;;;6.59;100.00;102357.56;4992222;28;20033;-63
2023/05/17 03:23:17;;;;;;;13.63;6.88;;;;;;;6.63;100.00;102357.00;5010027;28;20032;-63
2023/05/17 03:25:43;;;;;;;16.60;7.25;;;;;;;6.66;100.00;102362.38;5010097;28;20125;-63
2023/05/17 03:28:08;;;;;;;12.77;6.70;;;;;;;6.70;100.00;102359.25;5010703;28;20144;-62
2023/05/17 03:30:34;;;;;;;11.10;5.90;;;;;;;6.72;100.00;102367.09;5008954;28;20022;-62
2023/05/17 03:32:59;;;;;;;14.45;6.55;;;;;;;6.76;100.00;102365.63;5010420;28;20033;-63
2023/05/17 03:35:24;;;;;;;12.75;6.30;;;;;;;6.76;100.00;102360.47;5009764;28;20418;-63
2023/05/17 03:37:49;;;;;;;15.82;7.22;;;;;;;6.79;100.00;102365.84;5008914;28;20037;-63
2023/05/17 03:40:15;;;;;;;23.65;7.78;;;;;;;6.82;100.00;102369.53;5008567;28;20026;-63
2023/05/17 03:42:40;;;;;;;13.48;7.05;;;;;;;6.85;100.00;102368.88;5007872;28;20389;-63
2023/05/17 03:45:07;;;;;;;13.80;7.25;;;;;;;6.90;100.00;102371.78;5007128;28;20030;-63
2023/05/17 03:47:32;;;;;;;13.77;6.75;;;;;;;6.92;100.00;102371.13;5007176;28;20037;-63
2023/05/17 03:49:57;;;;;;;15.57;7.18;;;;;;;6.93;100.00;102378.03;5009596;28;20513;-63
2023/05/17 03:52:23;;;;;;;14.70;6.28;;;;;;;6.94;100.00;102373.78;5009811;28;20022;-63
2023/05/17 03:54:48;;;;;;;14.13;6.25;;;;;;;6.97;100.00;102382.66;4991945;28;20037;-63
2023/05/17 03:57:13;;;;;;;14.73;7.40;;;;;;;6.97;100.00;102379.16;5010234;28;20054;-63
2023/05/17 03:59:38;;;;;;;10.98;6.82;;;;;;;6.98;100.00;102386.09;5008663;28;20040;-63
2023/05/17 04:02:04;;;;;;;15.73;7.03;;;;;;;6.99;100.00;102384.41;5009498;28;20308;-63
2023/05/17 04:04:29;;;;;;;12.35;6.75;;;;;;;6.97;100.00;102381.75;5009597;28;20473;-63
2023/05/17 04:06:54;;;;;;;11.38;6.57;;;;;;;6.97;100.00;102386.91;5009116;28;20045;-63
2023/05/17 04:09:20;;;;;;;14.77;6.97;;;;;;;6.96;100.00;102390.28;5009289;28;20389;-63
2023/05/17 04:11:45;;;;;;;20.73;7.15;;;;;;;6.94;100.00;102384.09;5009461;28;20022;-63
2023/05/17 04:14:10;;;;;;;14.70;7.00;;;;;;;6.95;100.00;102394.53;5009295;28;20496;-63
2023/05/17 04:16:36;;;;;;;15.35;6.43;;;;;;;6.94;100.00;102391.84;5009209;28;20381;-63
2023/05/17 04:19:01;;;;;;;17.02;7.82;;;;;;;6.94;100.00;102392.72;5008832;28;20491;-63
2023/05/17 04:21:26;;;;;;;12.20;6.35;;;;;;;6.93;100.00;102395.19;5009246;28;20034;-63
2023/05/17 04:23:52;;;;;;;12.20;6.35;;;;;;;6.92;100.00;102389.16;5009317;28;20026;-63
2023/05/17 04:26:18;;;;;;;11.70;6.53;;;;;;;6.93;100.00;102396.09;5009148;28;20026;-63
2023/05/17 04:28:43;;;;;;;14.90;7.13;;;;;;;6.95;100.00;102404.84;5008398;28;20028;-63
2023/05/17 04:31:09;;;;;;;11.15;6.72;;;;;;;6.96;100.00;102411.75;5009111;28;20529;-63
2023/05/17 04:33:35;;;;;;;19.25;7.78;;;;;;;6.96;100.00;102404.03;5008283;28;20037;-64
2023/05/17 04:36:01;;;;;;;12.00;6.30;;;;;;;7.00;100.00;102412.00;5008837;28;20075;-63
2023/05/17 04:38:27;;;;;;;17.83;8.63;;;;;;;7.01;100.00;102409.53;5008651;28;20030;-63
2023/05/17 04:40:52;;;;;;;13.35;7.10;;;;;;;7.03;100.00;102418.28;5008382;28;20041;-63
2023/05/17 04:43:18;;;;;;;15.50;7.80;;;;;;;7.07;100.00;102419.38;5008298;28;20098;-63
2023/05/17 04:45:43;;;;;;;16.40;7.80;;;;;;;7.09;100.00;102420.38;5008996;28;20022;-63
2023/05/17 04:48:10;;;;;;;15.10;7.13;;;;;;;7.13;100.00;102435.28;5008414;28;20462;-63
2023/05/17 04:50:35;;;;;;;15.77;7.43;;;;;;;7.17;100.00;102432.16;5007766;28;20030;-63
2023/05/17 04:53:01;;;;;;;13.80;7.18;;;;;;;7.23;100.00;102436.88;5008719;28;20044;-63
2023/05/17 04:55:26;;;;;;;16.77;7.38;;;;;;;7.27;100.00;102436.28;5008392;28;20620;-63
2023/05/17 04:57:51;;;;;;;12.77;7.15;;;;;;;7.33;100.00;102438.41;5008310;28;20712;-63
2023/05/17 05:00:17;;;;;;;17.27;7.40;;;;;;;7.39;100.00;102438.84;5008587;28;20025;-63
2023/05/17 05:02:43;;;;;;;13.75;7.35;;;;;;;7.44;100.00;102442.66;5007187;28;20474;-63
2023/05/17 05:05:09;;;;;;;18.02;8.57;;;;;;;7.54;100.00;102438.09;5008412;28;20037;-63
2023/05/17 05:07:35;;;;;;;17.20;8.02;;;;;;;7.58;100.00;102447.88;5006103;28;20397;-63
2023/05/17 05:10:00;;;;;;;14.73;7.78;;;;;;;7.64;100.00;102445.72;5005086;28;20029;-63
2023/05/17 05:12:25;;;;;;;16.02;8.48;;;;;;;7.71;100.00;102452.22;5005713;28;20025;-63
2023/05/17 05:14:51;;;;;;;18.90;8.30;;;;;;;7.79;100.00;102455.31;5006254;28;20025;-63
2023/05/17 05:17:16;;;;;;;15.68;8.00;;;;;;;7.90;100.00;102461.22;5005842;28;20060;-63
2023/05/17 05:19:41;;;;;;;19.02;8.43;;;;;;;8.00;100.00;102463.66;5005613;28;20348;-62
2023/05/17 05:22:07;;;;;;;13.43;7.70;;;;;;;8.11;100.00;102466.09;5005580;28;20548;-63
2023/05/17 05:24:32;;;;;;;14.75;7.43;;;;;;;8.21;100.00;102467.59;5005330;28;20401;-63
2023/05/17 05:26:57;;;;;;;15.80;6.93;;;;;;;8.32;100.00;102468.31;5006190;28;20493;-63
2023/05/17 05:29:22;;;;;;;13.48;6.72;;;;;;;8.39;100.00;102474.00;5005911;28;20021;-63
2023/05/17 05:31:48;;;;;;;16.77;6.80;;;;;;;8.49;100.00;102474.63;5005699;28;20240;-63
2023/05/17 05:34:13;;;;;;;13.88;6.60;;;;;;;8.61;100.00;102478.06;5005256;28;20441;-63
2023/05/17 05:36:38;;;;;;;13.07;6.57;;;;;;;8.74;100.00;102479.75;5005618;28;20108;-63
2023/05/17 05:39:04;;;;;;;15.55;6.82;;;;;;;8.83;100.00;102481.16;5007613;28;20362;-63
2023/05/17 05:41:30;;;;;;;15.02;5.75;;;;;;;8.91;100.00;102481.66;5006895;28;20022;-63
2023/05/17 05:43:56;;;;;;;13.32;5.47;;;;;;;8.97;100.00;102489.81;5007395;28;20026;-63
2023/05/17 05:46:21;;;;;;;12.70;5.68;;;;;;;9.03;100.00;102482.44;5006554;28;20033;-63
2023/05/17 05:48:46;;;;;;;12.57;5.82;;;;;;;9.13;100.00;102490.03;5006623;28;20043;-63
2023/05/17 05:51:12;;;;;;;12.13;5.85;;;;;;;9.28;100.00;102489.22;5005376;28;20052;-63
2023/05/17 05:53:37;;;;;;;14.60;5.10;;;;;;;9.45;100.00;102492.88;5005211;28;20333;-63
2023/05/17 05:56:03;;;;;;;13.25;5.78;;;;;;;9.60;100.00;102490.38;5004490;28;20117;-63
2023/05/17 05:58:29;;;;;;;11.75;5.10;;;;;;;9.74;100.00;102490.31;4999414;28;20574;-63
2023/05/17 06:00:56;;;;;;;16.42;6.00;;;;;;;9.84;100.00;102497.84;4979134;28;20239;-62
2023/05/17 06:03:21;;;;;;;10.07;4.35;;;;;;;10.01;100.00;102497.97;5000096;28;20066;-62
2023/05/17 06:05:46;;;;;;;11.07;5.05;;;;;;;10.20;100.00;102509.44;5003318;28;20262;-62
2023/05/17 06:08:12;;;;;;;12.10;4.80;;;;;;;10.37;100.00;102504.38;5001544;28;20112;-62
2023/05/17 06:10:37;;;;;;;14.35;4.40;;;;;;;10.53;100.00;102512.31;5006089;28;20722;-62
2023/05/17 06:13:02;;;;;;;13.45;5.57;;;;;;;10.63;100.00;102508.53;5004913;28;20026;-62
2023/05/17 06:15:30;;;;;;;11.75;3.72;;;;;;;10.78;100.00;102513.75;5004611;28;20565;-63
2023/05/17 06:17:55;;;;;;;8.73;3.92;;;;;;;11.00;100.00;102525.34;5004419;28;20048;-63
2023/05/17 06:20:20;;;;;;;12.05;3.90;;;;;;;11.16;100.00;102526.22;5002921;28;20018;-63
2023/05/17 06:22:46;;;;;;;11.10;4.30;;;;;;;11.32;100.00;102522.78;5002023;28;20026;-63
2023/05/17 06:25:11;;;;;;;9.38;3.03;;;;;;;11.52;100.00;102538.56;5003683;28;20045;-62
2023/05/17 06:27:36;;;;;;;12.80;3.85;;;;;;;11.64;100.00;102525.38;5002873;28;20021;-63
2023/05/17 06:30:03;;;;;;;10.60;3.45;;;;;;;11.76;100.00;102536.41;5003028;28;20037;-62
2023/05/17 06:32:29;;;;;;;7.55;3.30;;;;;;;11.88;100.00;102531.00;5002564;28;20044;-62
2023/05/17 06:34:55;;;;;;;11.38;3.30;;;;;;;12.00;100.00;102535.97;5002249;28;20245;-63
2023/05/17 06:37:20;;;;;;;8.95;2.80;;;;;;;12.13;100.00;102534.03;4991952;28;20548;-62
2023/05/17 06:39:46;;;;;;;10.45;3.25;;;;;;;12.25;100.00;102526.00;5001015;28;20234;-63
2023/05/17 06:42:11;;;;;;;9.27;2.83;;;;;;;12.42;100.00;102536.38;4998001;28;20029;-62
2023/05/17 06:44:36;;;;;;;9.27;3.03;;;;;;;12.58;100.00;102540.66;5004430;28;20036;-63
2023/05/17 06:47:02;;;;;;;10.05;2.95;;;;;;;12.69;100.00;102539.50;5004670;28;20371;-63
2023/05/17 06:49:27;;;;;;;11.10;2.92;;;;;;;12.72;97.33;102542.25;5005249;28;20061;-63
2023/05/17 06:51:54;;;;;;;7.55;2.85;;;;;;;12.76;97.40;102543.28;5005474;28;20363;-62
2023/05/17 06:54:19;;;;;;;12.32;3.28;;;;;;;12.69;93.37;102544.69;5005417;28;20026;-62
2023/05/17 06:56:45;;;;;;;8.98;2.88;;;;;;;12.54;90.92;102538.72;5002361;28;20022;-63
2023/05/17 06:59:10;;;;;;;10.77;2.78;;;;;;;12.56;93.40;102539.69;5005044;28;20312;-62
2023/05/17 07:01:35;;;;;;;9.82;2.58;;;;;;;12.66;94.35;102541.94;5004937;28;20101;-63
2023/05/17 07:04:01;;;;;;;9.70;2.80;;;;;;;12.66;94.71;102544.56;5005381;28;20042;-62
2023/05/17 07:06:26;;;;;;;8.52;2.65;;;;;;;12.58;91.65;102545.84;5005263;28;20386;-63
2023/05/17 07:08:51;;;;;;;12.05;2.67;;;;;;;12.47;91.35;102551.41;5006093;28;20125;-63
2023/05/17 07:11:16;;;;;;;12.05;2.80;;;;;;;12.53;90.86;102549.94;5003152;28;20040;-63
2023/05/17 07:13:42;;;;;;;12.50;2.88;;;;;;;12.51;88.48;102551.56;4987736;28;20379;-62
2023/05/17 07:16:08;;;;;;;8.38;2.03;;;;;;;12.61;91.19;102559.00;5005986;28;20097;-62
2023/05/17 07:18:33;;;;;;;14.25;2.55;;;;;;;12.56;88.87;102556.19;5005716;28;20050;-63
2023/05/17 07:20:58;;;;;;;10.38;2.45;;;;;;;12.61;89.03;102556.41;5005235;28;20084;-62
2023/05/17 07:23:24;;;;;;;14.35;3.65;;;;;;;12.70;88.17;102556.00;5004482;28;20040;-62
2023/05/17 07:25:49;;;;;;;11.30;2.30;;;;;;;12.93;88.71;102554.53;5005943;28;20041;-63
2023/05/17 07:28:15;;;;;;;9.98;2.30;;;;;;;13.01;82.54;102572.22;5004135;28;20025;-62
2023/05/17 07:30:41;;;;;;;13.30;3.17;;;;;;;12.89;80.75;102573.44;5004833;28;20041;-63
2023/05/17 07:33:06;;;;;;;11.27;3.03;;;;;;;12.76;81.42;102569.31;5006883;28;20354;-62
2023/05/17 07:35:31;;;;;;;4.95;2.20;;;;;;;12.54;81.25;102575.13;5008838;28;20034;-63
2023/05/17 07:37:56;;;;;;;10.75;2.90;;;;;;;12.47;83.16;102568.69;5008874;28;20095;-63
2023/05/17 07:40:22;;;;;;;11.30;2.17;;;;;;;12.45;84.35;102576.44;5008395;28;20474;-62
2023/05/17 07:42:47;;;;;;;10.93;2.22;;;;;;;12.48;82.98;102576.56;5008987;28;20025;-62
2023/05/17 07:45:12;;;;;;;11.43;2.63;;;;;;;12.61;82.83;102574.59;4991273;28;20037;-62
2023/05/17 07:47:38;;;;;;;7.30;2.58;;;;;;;12.99;85.08;102573.91;5008542;28;20425;-63
2023/05/17 07:50:04;;;;;;;10.60;2.75;;;;;;;13.29;77.46;102578.81;5008442;28;20026;-62
2023/05/17 07:52:29;;;;;;;8.98;2.42;;;;;;;13.35;75.23;102579.09;5006071;28;20044;-62
2023/05/17 07:54:54;;;;;;;10.27;2.10;;;;;;;13.26;76.29;102584.75;5008753;28;20200;-62
2023/05/17 07:57:20;;;;;;;12.43;2.83;;;;;;;13.06;75.56;102589.00;5006241;28;20033;-62
2023/05/17 07:59:46;;;;;;;6.53;1.85;;;;;;;13.14;76.35;102579.84;5008872;28;20026;-62
2023/05/17 08:02:11;;;;;;;8.32;2.08;;;;;;;13.49;76.81;102587.56;5008999;28;20363;-63
2023/05/17 08:04:37;;;;;;;8.73;2.72;;;;;;;13.98;77.49;102584.59;5008085;28;20022;-62
2023/05/17 08:07:02;;;;;;;6.13;2.05;;;;;;;14.45;72.63;102586.66;5008549;28;20037;-63
2023/05/17 08:09:27;;;;;;;8.30;1.67;;;;;;;14.93;73.04;102593.09;5008169;28;20037;-62
2023/05/17 08:11:53;;;;;;;8.75;1.90;;;;;;;15.33;67.12;102588.59;5008393;28;20029;-63
2023/05/17 08:14:21;;;;;;;10.20;2.40;;;;;;;15.54;66.57;102591.16;5008357;28;20022;-63
2023/05/17 08:16:46;;;;;;;8.18;1.88;;;;;;;15.27;63.76;102591.88;5007690;28;20026;-62
2023/05/17 08:19:13;;;;;;;8.90;2.33;;;;;;;14.89;65.76;102595.53;5008202;28;20029;-63
2023/05/17 08:21:39;;;;;;;6.82;2.10;;;;;;;14.55;65.25;102591.50;4990195;28;20581;-63
2023/05/17 08:24:05;;;;;;;12.52;2.13;;;;;;;14.27;67.67;102596.38;5008266;28;20480;-63
2023/05/17 08:26:30;;;;;;;8.68;2.10;;;;;;;14.46;70.09;102597.19;5008115;28;20025;-63
2023/05/17 08:28:55;;;;;;;13.02;2.88;;;;;;;14.87;68.52;102591.09;5008011;28;20022;-63
2023/05/17 08:31:21;;;;;;;7.93;1.92;;;;;;;15.20;67.13;102595.94;5007685;28;20168;-62
2023/05/17 08:33:46;;;;;;;5.85;1.48;;;;;;;15.55;64.45;102595.56;5006811;28;20333;-63
2023/05/17 08:36:12;;;;;;;8.90;1.85;;;;;;;15.95;63.73;102592.72;5008382;28;20030;-62
2023/05/17 08:38:37;;;;;;;4.97;1.65;;;;;;;16.25;62.26;102592.09;5005979;28;20380;-62
2023/05/17 08:41:02;;;;;;;9.02;2.17;;;;;;;16.47;62.60;102598.09;5007924;28;20216;-63
2023/05/17 08:43:30;;;;;;;7.85;2.20;;;;;;;16.66;57.83;102590.88;5007467;28;20391;-63
2023/05/17 08:45:56;;;;;;;8.48;1.90;;;;;;;16.78;59.53;102593.03;5007882;28;20462;-63
2023/05/17 08:48:22;;;;;;;8.02;1.58;;;;;;;16.77;59.83;102600.00;5005347;28;20034;-63
2023/05/17 08:50:49;;;;;;;4.63;1.50;;;;;;;16.32;58.65;102595.81;5007700;28;20038;-63
2023/05/17 08:53:16;;;;;;;8.38;1.77;;;;;;;15.86;58.22;102601.09;5007110;28;20185;-63
2023/05/17 08:55:44;;;;;;;6.63;1.92;;;;;;;15.67;58.96;102605.59;5007492;28;20033;-63
2023/05/17 08:58:12;;;;;;;5.70;1.17;;;;;;;15.93;61.46;102599.59;5007606;28;20033;-63
2023/05/17 09:00:37;;;;;;;7.10;2.05;;;;;;;16.24;59.36;102597.25;5006929;28;20357;-63
2023/05/17 09:03:04;;;;;;;5.32;1.65;;;;;;;16.52;57.97;102603.47;5005445;28;20048;-63
2023/05/17 09:05:30;;;;;;;7.82;1.70;;;;;;;16.57;58.94;102599.28;5005722;28;20030;-63
2023/05/17 09:07:58;;;;;;;8.98;1.75;;;;;;;16.52;58.15;102596.53;5006566;28;20473;-64
2023/05/17 09:10:23;;;;;;;8.85;2.40;;;;;;;16.65;57.98;102605.69;5006352;28;20065;-62
2023/05/17 09:12:49;;;;;;;6.40;2.08;;;;;;;16.84;58.48;102603.69;5007373;28;20113;-63
2023/05/17 09:15:19;;;;;;;9.23;1.70;;;;;;;17.13;57.61;102600.31;5004913;28;20486;-62
2023/05/17 09:17:55;;;;;;;7.23;2.03;;;;;;;17.32;54.11;102601.81;5007451;28;20033;-63
2023/05/17 09:20:33;;;;;;;7.25;1.63;;;;;;;17.29;55.21;102604.31;5005282;28;20276;-63
2023/05/17 09:23:00;;;;;;;5.82;1.83;;;;;;;17.20;53.97;102604.91;5007686;28;20026;-63
2023/05/17 09:25:28;;;;;;;10.15;2.22;;;;;;;17.23;54.00;102604.13;5006356;28;20030;-63
2023/05/17 09:27:55;;;;;;;6.03;2.13;;;;;;;16.95;52.95;102604.06;5006950;28;20041;-63
2023/05/17 09:30:28;;;;;;;7.20;1.80;;;;;;;16.66;54.05;102603.94;5004665;28;20022;-63
2023/05/17 09:32:54;;;;;;;6.32;1.58;;;;;;;16.39;54.31;102610.00;5006904;28;20100;-63
2023/05/17 09:35:26;;;;;;;5.13;1.67;;;;;;;16.55;56.27;102604.47;5006855;28;20599;-63
2023/05/17 09:37:52;;;;;;;10.77;1.77;;;;;;;16.78;57.27;102607.00;5006970;28;20053;-62
2023/05/17 09:40:23;;;;;;;5.90;1.52;;;;;;;16.86;54.98;102599.41;4988812;28;20057;-63
2023/05/17 09:42:48;;;;;;;;;;;;;;;16.79;55.68;102606.19;5007637;28;20029;-63
2023/05/17 09:45:20;;;;;;;6.70;1.67;;;;;;;16.39;56.01;102596.91;5005495;28;20244;-63
2023/05/17 09:47:46;;;;;;;6.28;1.42;;;;;;;16.34;58.82;102609.84;5006900;28;20022;-62
2023/05/17 09:50:16;;;;;;;7.35;1.70;;;;;;;16.53;58.58;102602.66;5006468;28;20109;-64
2023/05/17 09:52:42;;;;;;;7.80;2.00;;;;;;;16.75;57.05;102599.03;5006017;28;20474;-63
2023/05/17 09:55:10;;;;;;;5.28;1.67;;;;;;;17.04;54.04;102599.16;5001963;28;20029;-63
2023/05/17 09:57:38;;;;;;;7.15;1.83;;;;;;;17.33;56.00;102595.72;4999714;28;20409;-63
2023/05/17 10:00:09;;;;;;;7.50;1.50;;;;;;;17.59;54.13;102598.25;5005767;28;20096;-63
2023/05/17 10:02:36;;;;;;;5.55;1.60;;;;;;;17.45;51.42;102604.81;5006147;28;20107;-63
2023/05/17 10:05:04;;;;;;;8.70;2.08;;;;;;;17.26;51.00;102599.88;5006183;28;20552;-63
2023/05/17 10:07:30;;;;;;;6.63;1.50;;;;;;;17.02;55.39;102595.56;5005003;28;20584;-63
2023/05/17 10:09:57;;;;;;;8.23;1.92;;;;;;;16.92;54.31;102603.97;5006722;28;20536;-63
2023/05/17 10:12:26;;;;;;;7.82;1.77;;;;;;;17.06;57.22;102607.03;5006211;28;20029;-63
2023/05/17 10:14:54;;;;;;;6.03;2.53;;;;;;;17.33;55.05;102615.78;5005842;28;20477;-63
2023/05/17 10:17:20;;;;;;;7.85;2.03;;;;;;;17.48;51.82;102611.03;5004602;28;20095;-64
2023/05/17 10:19:46;;;;;;;7.22;1.80;;;;;;;17.32;49.12;102603.53;5006264;28;20389;-63
2023/05/17 10:22:15;;;;;;;7.60;1.83;;;;;;;17.47;55.02;102609.25;5006327;28;20126;-64
2023/05/17 10:24:45;;;;;;;6.53;1.63;;;;;;;17.52;53.83;102617.28;5005157;28;20036;-63
2023/05/17 10:27:11;;;;;;;5.13;1.52;;;;;;;17.24;53.19;102605.91;5005062;28;20029;-63
2023/05/17 10:29:38;;;;;;;7.50;1.60;;;;;;;17.30;55.50;102610.44;4988269;28;20390;-63
2023/05/17 10:32:06;;;;;;;8.88;1.42;;;;;;;17.46;52.98;102607.47;5002036;28;20374;-63
2023/05/17 10:34:37;;;;;;;5.32;1.50;;;;;;;17.56;52.79;102606.03;5004570;28;20511;-63
2023/05/17 10:37:03;;;;;;;7.38;1.55;;;;;;;17.49;52.29;102612.81;5004259;28;20034;-62
2023/05/17 10:39:28;;;;;;;4.50;1.10;;;;;;;17.38;51.67;102604.59;5005702;28;20056;-63
2023/05/17 10:41:56;;;;;;;5.20;1.30;;;;;;;17.31;53.05;102606.97;5006061;28;20021;-63
2023/05/17 10:44:22;;;;;;;6.75;1.80;;;;;;;17.42;51.63;102595.13;5006107;28;20489;-63
2023/05/17 10:46:55;;;;;;;6.32;1.40;;;;;;;17.54;50.71;102591.97;5005765;28;20014;-63
2023/05/17 10:49:24;;;;;;;5.78;1.63;;;;;;;17.51;49.89;102590.16;5006164;28;20026;-64
2023/05/17 10:51:50;;;;;;;10.20;2.00;;;;;;;17.49;52.42;102593.56;5006200;28;20099;-63
2023/05/17 10:54:18;;;;;;;3.65;1.08;;;;;;;17.57;53.35;102593.81;5004972;28;20025;-63
2023/05/17 10:56:50;;;;;;;5.28;1.35;;;;;;;17.72;53.33;102586.41;5005990;28;20026;-63
2023/05/17 10:59:28;;;;;;;6.68;1.25;;;;;;;17.91;52.08;102591.31;5004598;28;20059;-63
2023/05/17 11:01:56;;;;;;;5.10;1.50;;;;;;;18.12;50.39;102577.91;5005838;28;20014;-63
2023/05/17 11:04:24;;;;;;;4.07;1.30;;;;;;;18.10;47.74;102574.38;5005870;28;20050;-63
2023/05/17 11:07:18;;;;;;;7.97;1.55;;;;;;;17.99;50.10;102579.31;5006655;28;20394;-63
2023/05/17 11:09:58;;;;;;;4.07;1.52;;;;;;;17.94;47.65;102573.94;5008388;28;20037;-63
2023/05/17 11:12:41;;;;;;;4.75;1.15;;;;;;;17.97;48.99;102575.78;5009365;28;20454;-64
2023/05/17 11:15:12;;;;;;;4.82;1.27;;;;;;;18.03;51.01;102578.56;5009479;28;20100;-63
2023/05/17 11:17:45;;;;;;;5.35;1.30;;;;;;;18.12;49.16;102583.16;5009721;28;20053;-62